Terminal Aerodrome Forecast
Issued by NWS Charleston, WV

Current Version | Previous Version | Text Only | Print | Product List | Glossary Off
Versions: 1 2 3 4 5 6 7 8 9 10 11 12 13 14 15 16 17 18 19 20 21 22 23 24 25 26 27 28

000
FTUS41 KRLX 070255 AAA
TAFPKB
TAF AMD
KPKB 070255Z 0703/0724 19005KT P6SM FEW045 SCT120
     FM070600 VRB03KT 2SM BR SCT150
     FM070700 00000KT 1/2SM FG VV001
     FM071200 20005KT 4SM BR SCT250
     FM071230 21007KT P6SM SCT045
     FM072000 22009KT P6SM VCTS BKN045CB
     FM072300 24006KT P6SM TSRA BKN045CB=

USA.gov is the U.S. government's official web portal to all federal, state and local government web resources and services.